Crowley, Colorado
Current Conditions -  °F | °C
As of 4:53 PM on Saturday 25 Oct 2014 (Local Time) from KLHX Reporting Station
Clear Clear  
Wind Chill: 83°   Ceiling: Unl
Heat Index: 83°   Visibility: 10mi
Dew Point: 29°   Wind: 6mph
Humidity: 14%   Direction: 120°ESE
Pressure: 30.01"   Gusts: NA
Location:  38.19°N, 103.86°W
Report Text: KLHX 252253Z AUTO 12005KT 10SM CLR 28/M02 A3001 RMK AO2 SLP119 T02831017
Loading
Personal Weather Stations






























Interactive Weather Map
Tropical Storm Tracking
New forecast layout! Learn more

10-Day Weather Forecast

Advertisements
Track Severe Weather on mobile